Terminal Aerodrome Forecast
Issued by NWS Wilmington, NC

Home | Current Version | Previous Version | Text Only | Print | Product List | Glossary On
Versions: 1 2 3 4 5 6 7 8 9 10 11 12
000
FTUS42 KILM 291100
TAFFLO
TAF
KFLO 291120Z 2912/3012 24003KT P6SM SKC
     FM291600 14007KT P6SM FEW060
     FM300200 16005KT P6SM FEW050
     FM300600 VRB03KT 3SM BR SCT005=

USA.gov is the U.S. government's official web portal to all federal, state and local government web resources and services.